createdAt,value
2023-02-05T00:01:37.226Z,3.13
2023-02-05T00:04:08.683Z,2.30
2023-02-05T00:06:35.632Z,2.65
2023-02-05T00:09:02.982Z,2.30
2023-02-05T00:11:30.002Z,2.65
2023-02-05T00:13:57.532Z,2.15
2023-02-05T00:16:25.542Z,3.42
2023-02-05T00:18:53.492Z,1.98
2023-02-05T00:21:22.989Z,2.60
2023-02-05T00:23:51.138Z,1.70
2023-02-05T00:26:18.250Z,1.95
2023-02-05T00:28:46.119Z,2.88
2023-02-05T00:31:16.255Z,3.50
2023-02-05T00:33:43.633Z,2.70
2023-02-05T00:36:12.840Z,2.38
2023-02-05T00:38:41.227Z,2.92
2023-02-05T00:41:08.348Z,2.15
2023-02-05T00:43:35.700Z,2.50
2023-02-05T00:46:04.961Z,2.78
2023-02-05T00:48:31.953Z,2.42
2023-02-05T00:50:59.018Z,2.85
2023-02-05T00:53:27.155Z,2.33
2023-02-05T00:55:54.385Z,2.95
2023-02-05T00:58:21.522Z,2.63
2023-02-05T01:00:51.111Z,3.13
2023-02-05T01:03:19.248Z,2.50
2023-02-05T01:05:46.699Z,2.22
2023-02-05T01:08:14.373Z,2.60
2023-02-05T01:10:49.508Z,2.33
2023-02-05T01:13:18.245Z,3.17
2023-02-05T01:15:45.912Z,3.72
2023-02-05T01:18:13.305Z,2.88
2023-02-05T01:20:41.914Z,2.60
2023-02-05T01:23:09.508Z,2.72
2023-02-05T01:25:36.601Z,2.88
2023-02-05T01:28:03.927Z,3.20
2023-02-05T01:30:31.330Z,2.45
2023-02-05T01:32:58.429Z,3.42
2023-02-05T01:35:25.461Z,2.92
2023-02-05T01:37:52.534Z,3.00
2023-02-05T01:40:20.288Z,2.60
2023-02-05T01:42:47.354Z,3.63
2023-02-05T01:45:23.524Z,2.72
2023-02-05T01:47:53.217Z,3.05
2023-02-05T01:50:23.866Z,2.80
2023-02-05T01:52:51.544Z,3.03
2023-02-05T01:55:20.271Z,2.72
2023-02-05T01:57:49.547Z,2.40
2023-02-05T02:00:17.145Z,2.05
2023-02-05T02:02:45.215Z,2.83
2023-02-05T02:05:17.392Z,3.00
2023-02-05T02:07:44.443Z,2.55
2023-02-05T02:10:14.420Z,2.70
2023-02-05T02:12:44.757Z,2.78
2023-02-05T02:15:18.596Z,2.22
2023-02-05T02:17:50.238Z,2.30
2023-02-05T02:20:22.151Z,2.35
2023-02-05T02:22:54.685Z,2.10
2023-02-05T02:25:39.901Z,2.45
2023-02-05T02:28:16.282Z,3.13
2023-02-05T02:30:50.068Z,2.17
2023-02-05T02:33:29.051Z,1.52
2023-02-05T02:36:09.294Z,1.55
2023-02-05T02:39:05.136Z,1.40
2023-02-05T02:41:43.358Z,1.90
2023-02-05T02:44:19.615Z,2.08
2023-02-05T02:46:55.699Z,1.65
2023-02-05T02:49:37.026Z,1.77
2023-02-05T02:52:07.979Z,1.52
2023-02-05T02:54:39.708Z,1.50
2023-02-05T02:57:09.926Z,1.27
2023-02-05T02:59:39.657Z,1.42
2023-02-05T03:02:11.448Z,1.20
2023-02-05T03:04:43.783Z,1.75
2023-02-05T03:07:13.614Z,1.63
2023-02-05T03:10:09.764Z,1.25
2023-02-05T03:12:36.866Z,1.40
2023-02-05T03:15:04.254Z,1.30
2023-02-05T03:17:31.411Z,1.42
2023-02-05T03:20:03.115Z,1.23
2023-02-05T03:22:30.275Z,1.30
2023-02-05T03:24:57.621Z,1.80
2023-02-05T03:27:24.739Z,1.00
2023-02-05T03:29:51.792Z,0.82
2023-02-05T03:32:33.268Z,1.05
2023-02-05T03:35:18.354Z,0.75
2023-02-05T03:38:14.511Z,1.60
2023-02-05T03:40:48.175Z,0.90
2023-02-05T03:43:30.781Z,1.08
2023-02-05T03:46:27.900Z,0.93
2023-02-05T03:49:25.802Z,1.20
2023-02-05T03:52:01.112Z,0.93
2023-02-05T03:54:33.290Z,0.65
2023-02-05T03:57:05.755Z,0.70
2023-02-05T03:59:34.163Z,0.98
2023-02-05T04:02:03.428Z,0.80
2023-02-05T04:04:31.622Z,1.10
2023-02-05T04:06:58.674Z,0.90
2023-02-05T04:09:25.744Z,1.08
2023-02-05T04:11:52.852Z,1.05
2023-02-05T04:14:20.177Z,1.00
2023-02-05T04:16:47.173Z,0.90
2023-02-05T04:19:14.252Z,0.98
2023-02-05T04:21:41.215Z,0.73
2023-02-05T04:24:08.507Z,0.63
2023-02-05T04:26:35.815Z,0.80
2023-02-05T04:29:03.311Z,0.80
2023-02-05T04:31:30.460Z,0.77
2023-02-05T04:34:00.130Z,0.70
2023-02-05T04:36:27.234Z,1.10
2023-02-05T04:38:54.208Z,1.00
2023-02-05T04:41:21.188Z,0.88
2023-02-05T04:43:48.306Z,0.80
2023-02-05T04:46:15.433Z,0.75
2023-02-05T04:48:42.832Z,0.50
2023-02-05T04:51:11.481Z,1.00
2023-02-05T04:53:39.403Z,0.50
2023-02-05T04:56:06.661Z,0.68
2023-02-05T04:58:34.028Z,0.57
2023-02-05T05:01:01.395Z,0.60
2023-02-05T05:03:28.477Z,0.80
2023-02-05T05:05:55.427Z,0.60
2023-02-05T05:08:22.767Z,0.52
2023-02-05T05:10:49.743Z,0.47
2023-02-05T05:13:16.779Z,0.75
2023-02-05T05:15:43.711Z,0.55
2023-02-05T05:18:10.703Z,0.60
2023-02-05T05:20:37.825Z,0.50
2023-02-05T05:23:04.776Z,0.68
2023-02-05T05:25:31.883Z,0.60
2023-02-05T05:27:59.107Z,0.73
2023-02-05T05:30:26.051Z,0.45
2023-02-05T05:32:53.052Z,0.45
2023-02-05T05:35:20.062Z,0.50
2023-02-05T05:37:46.951Z,0.70
2023-02-05T05:40:32.695Z,0.55
2023-02-05T05:43:18.564Z,0.80
2023-02-05T05:45:45.692Z,0.47
2023-02-05T05:48:12.661Z,0.77
2023-02-05T05:50:39.706Z,0.73
2023-02-05T05:53:06.669Z,0.43
2023-02-05T05:55:34.009Z,0.60
2023-02-05T05:58:01.189Z,0.38
2023-02-05T06:00:28.176Z,0.40
2023-02-05T06:02:55.425Z,0.50
2023-02-05T06:05:22.484Z,0.50
2023-02-05T06:07:49.444Z,0.98
2023-02-05T06:10:16.570Z,0.45
2023-02-05T06:12:43.855Z,0.57
2023-02-05T06:15:12.127Z,0.50
2023-02-05T06:17:39.357Z,0.40
2023-02-05T06:20:06.730Z,0.50
2023-02-05T06:22:33.770Z,0.40
2023-02-05T06:25:01.738Z,0.35
2023-02-05T06:27:28.921Z,0.32
2023-02-05T06:29:56.163Z,0.40
2023-02-05T06:32:26.512Z,0.32
2023-02-05T06:34:54.338Z,0.55
2023-02-05T06:37:23.512Z,0.38
2023-02-05T06:39:52.272Z,0.57
2023-02-05T06:42:19.363Z,0.60
2023-02-05T06:44:46.501Z,0.43
2023-02-05T06:47:13.496Z,0.60
2023-02-05T06:49:40.550Z,0.43
2023-02-05T06:52:07.839Z,0.40
2023-02-05T06:54:35.017Z,0.40
2023-02-05T06:57:02.089Z,0.40
2023-02-05T06:59:29.173Z,0.30
2023-02-05T07:01:56.304Z,0.75
2023-02-05T07:04:23.502Z,0.70
2023-02-05T07:06:54.565Z,0.32
2023-02-05T07:09:21.837Z,0.75
2023-02-05T07:11:48.776Z,0.38
2023-02-05T07:14:15.760Z,0.20
2023-02-05T07:16:43.435Z,0.17
2023-02-05T07:19:10.362Z,0.20
2023-02-05T07:21:37.385Z,1.75
2023-02-05T07:24:04.832Z,0.30
2023-02-05T07:26:31.715Z,2.15
2023-02-05T07:28:58.857Z,0.70
2023-02-05T07:31:25.950Z,0.43
2023-02-05T07:33:53.206Z,0.80
2023-02-05T07:36:20.641Z,0.50
2023-02-05T07:38:47.928Z,1.00
2023-02-05T07:41:16.643Z,0.50
2023-02-05T07:43:44.340Z,0.75
2023-02-05T07:46:13.744Z,0.77
2023-02-05T07:48:40.832Z,1.80
2023-02-05T07:51:08.628Z,1.48
2023-02-05T07:53:35.545Z,1.90
2023-02-05T07:56:04.320Z,2.05
2023-02-05T07:58:32.648Z,1.08
2023-02-05T08:01:03.894Z,2.08
2023-02-05T08:03:32.158Z,1.63
2023-02-05T08:05:59.467Z,1.00
2023-02-05T08:08:26.557Z,1.92
2023-02-05T08:11:05.613Z,0.60
2023-02-05T08:13:33.410Z,1.48
2023-02-05T08:16:04.322Z,0.55
2023-02-05T08:18:31.382Z,0.40
2023-02-05T08:20:58.537Z,0.43
2023-02-05T08:23:26.157Z,3.45
2023-02-05T08:25:57.779Z,1.45
2023-02-05T08:28:27.278Z,0.93
2023-02-05T08:30:54.599Z,0.20
2023-02-05T08:33:21.670Z,0.95
2023-02-05T08:35:48.751Z,0.95
2023-02-05T08:38:16.039Z,1.13
2023-02-05T08:40:43.007Z,0.82
2023-02-05T08:43:10.030Z,0.40
2023-02-05T08:45:37.554Z,0.50
2023-02-05T08:48:05.243Z,0.40
2023-02-05T08:50:32.304Z,0.70
2023-02-05T08:52:59.400Z,1.70
2023-02-05T08:55:26.904Z,2.08
2023-02-05T08:57:53.996Z,0.70
2023-02-05T09:00:22.407Z,1.20
2023-02-05T09:02:49.478Z,1.70
2023-02-05T09:05:16.823Z,1.05
2023-02-05T09:07:43.875Z,1.10
2023-02-05T09:10:13.188Z,1.20
2023-02-05T09:12:40.420Z,1.65
2023-02-05T09:15:08.751Z,1.48
2023-02-05T09:17:35.834Z,0.65
2023-02-05T09:20:04.471Z,1.15
2023-02-05T09:22:31.574Z,1.17
2023-02-05T09:24:59.045Z,0.50
2023-02-05T09:27:26.448Z,1.48
2023-02-05T09:29:53.389Z,0.88
2023-02-05T09:32:20.357Z,0.88
2023-02-05T09:34:57.641Z,1.20
2023-02-05T09:37:24.793Z,1.38
2023-02-05T09:40:19.452Z,1.10
2023-02-05T09:42:38.894Z,0.90
2023-02-05T09:45:38.132Z,1.40
2023-02-05T09:48:30.334Z,1.15
2023-02-05T09:50:58.627Z,1.17
2023-02-05T09:53:39.537Z,2.33
2023-02-05T09:56:10.221Z,2.08
2023-02-05T09:58:49.799Z,1.75
2023-02-05T10:01:46.340Z,2.05
2023-02-05T10:07:01.559Z,2.05
2023-02-05T10:10:01.674Z,1.77
2023-02-05T10:12:52.843Z,1.02
2023-02-05T10:15:26.547Z,1.17
2023-02-05T10:17:53.465Z,0.98
2023-02-05T10:20:30.143Z,0.95
2023-02-05T10:23:04.319Z,2.10
2023-02-05T10:25:50.431Z,1.85
2023-02-05T10:31:12.869Z,0.98
2023-02-05T10:33:56.136Z,1.45
2023-02-05T10:36:25.827Z,1.70
2023-02-05T10:38:56.785Z,1.75
2023-02-05T10:41:43.566Z,1.23
2023-02-05T10:44:40.421Z,1.13
2023-02-05T10:47:15.004Z,1.15
2023-02-05T10:49:56.524Z,2.20
2023-02-05T10:52:23.695Z,1.63
2023-02-05T10:54:51.291Z,0.80
2023-02-05T10:57:21.251Z,1.92
2023-02-05T10:59:58.764Z,0.60
2023-02-05T11:02:37.979Z,2.92
2023-02-05T11:05:15.287Z,1.10
2023-02-05T11:07:46.721Z,1.08
2023-02-05T11:10:23.940Z,1.30
2023-02-05T11:12:54.148Z,1.67
2023-02-05T11:15:25.567Z,1.10
2023-02-05T11:18:07.990Z,1.15
2023-02-05T11:20:39.640Z,1.55
2023-02-05T11:23:17.291Z,1.52
2023-02-05T11:25:53.050Z,1.95
2023-02-05T11:28:27.785Z,1.58
2023-02-05T11:30:55.424Z,2.70
2023-02-05T11:33:22.863Z,2.30
2023-02-05T11:36:15.069Z,1.70
2023-02-05T11:38:51.110Z,1.70
2023-02-05T11:41:48.630Z,1.92
2023-02-05T11:44:30.515Z,1.70
2023-02-05T11:47:00.189Z,2.47
2023-02-05T11:49:36.697Z,2.28
2023-02-05T11:52:15.922Z,2.60
2023-02-05T11:54:47.799Z,2.95
2023-02-05T11:57:17.533Z,1.98
2023-02-05T12:00:21.912Z,1.48
2023-02-05T12:02:53.990Z,1.33
2023-02-05T12:05:31.603Z,1.65
2023-02-05T12:08:10.374Z,1.60
2023-02-05T12:10:40.261Z,0.93
2023-02-05T12:13:25.389Z,1.63
2023-02-05T12:16:07.145Z,2.43
2023-02-05T12:19:14.477Z,2.63
2023-02-05T12:22:10.733Z,2.40
2023-02-05T12:24:58.197Z,2.95
2023-02-05T12:27:42.724Z,3.00
2023-02-05T12:30:10.037Z,2.25
2023-02-05T12:33:01.206Z,2.22
2023-02-05T12:35:48.691Z,2.60
2023-02-05T12:38:32.006Z,2.45
2023-02-05T12:41:34.759Z,3.00
2023-02-05T12:44:32.343Z,3.50
2023-02-05T12:47:10.610Z,3.83
2023-02-05T12:50:11.437Z,3.40
2023-02-05T12:52:47.179Z,3.08
2023-02-05T12:55:30.546Z,2.80
2023-02-05T12:58:01.743Z,3.10
2023-02-05T13:00:54.336Z,2.90
2023-02-05T13:03:38.827Z,3.22
2023-02-05T13:06:18.318Z,2.60
2023-02-05T13:08:55.856Z,2.75
2023-02-05T13:11:39.036Z,2.50
2023-02-05T13:14:11.938Z,2.40
2023-02-05T13:16:49.579Z,2.80
2023-02-05T13:19:22.742Z,2.80
2023-02-05T13:22:11.346Z,3.03
2023-02-05T13:25:03.680Z,2.53
2023-02-05T13:27:55.395Z,2.95
2023-02-05T13:30:57.245Z,3.22
2023-02-05T13:33:24.261Z,2.53
2023-02-05T13:36:18.640Z,3.10
2023-02-05T13:39:00.722Z,3.00
2023-02-05T13:42:02.350Z,2.75
2023-02-05T13:45:00.102Z,2.70
2023-02-05T13:48:12.601Z,3.53
2023-02-05T13:51:17.276Z,3.35
2023-02-05T13:53:48.784Z,3.55
2023-02-05T13:56:18.232Z,3.28
2023-02-05T13:59:01.352Z,3.75
2023-02-05T14:01:32.006Z,3.00
2023-02-05T14:04:07.212Z,4.38
2023-02-05T14:06:40.803Z,4.60
2023-02-05T14:09:21.392Z,4.60
2023-02-05T14:12:00.890Z,3.65
2023-02-05T14:14:36.056Z,4.18
2023-02-05T14:17:29.304Z,4.07
2023-02-05T14:20:00.644Z,4.15
2023-02-05T14:22:44.120Z,3.60
2023-02-05T14:25:36.689Z,3.35
2023-02-05T14:28:30.367Z,3.97
2023-02-05T14:31:03.748Z,4.35
2023-02-05T14:33:31.266Z,3.78
2023-02-05T14:36:22.923Z,3.40
2023-02-05T14:39:01.094Z,3.55
2023-02-05T14:41:58.756Z,4.85
2023-02-05T14:44:39.224Z,4.80
2023-02-05T14:47:19.464Z,5.50
2023-02-05T14:49:48.849Z,5.22
2023-02-05T14:52:31.592Z,5.32
2023-02-05T14:55:01.761Z,6.38
2023-02-05T14:57:47.661Z,5.40
2023-02-05T15:00:26.147Z,5.65
2023-02-05T15:03:02.306Z,5.20
2023-02-05T15:05:44.409Z,6.03
2023-02-05T15:08:21.180Z,4.93
2023-02-05T15:11:00.159Z,3.28
2023-02-05T15:13:27.199Z,3.22
2023-02-05T15:16:12.747Z,3.00
2023-02-05T15:18:50.983Z,2.47
2023-02-05T15:21:28.848Z,3.00
2023-02-05T15:24:16.905Z,2.63
2023-02-05T15:27:00.857Z,3.92
2023-02-05T15:29:43.134Z,3.05
2023-02-05T15:32:31.956Z,2.55
2023-02-05T15:35:21.813Z,2.70
2023-02-05T15:38:04.520Z,2.30
2023-02-05T15:40:33.632Z,3.45
2023-02-05T15:43:22.202Z,4.00
2023-02-05T15:46:02.966Z,3.03
2023-02-05T15:48:33.811Z,3.25
2023-02-05T15:51:10.412Z,2.80
2023-02-05T15:53:49.497Z,2.97
2023-02-05T15:56:24.070Z,3.33
2023-02-05T15:59:04.847Z,2.70
2023-02-05T16:01:35.779Z,2.83
2023-02-05T16:04:15.934Z,3.17
2023-02-05T16:06:43.252Z,2.83
2023-02-05T16:09:29.960Z,3.17
2023-02-05T16:11:57.759Z,3.42
2023-02-05T16:14:28.784Z,3.60
2023-02-05T16:16:58.740Z,3.58
2023-02-05T16:19:54.341Z,3.30
2023-02-05T16:22:40.763Z,2.90
2023-02-05T16:25:31.326Z,2.40
2023-02-05T16:28:02.863Z,2.70
2023-02-05T16:30:40.830Z,2.47
2023-02-05T16:33:15.535Z,2.05
2023-02-05T16:35:47.726Z,2.50
2023-02-05T16:38:20.608Z,2.53
2023-02-05T16:40:51.864Z,2.10
2023-02-05T16:43:22.053Z,2.35
2023-02-05T16:46:20.863Z,2.05
2023-02-05T16:48:48.185Z,2.45
2023-02-05T16:51:33.840Z,2.38
2023-02-05T16:54:22.709Z,2.47
2023-02-05T16:57:01.414Z,1.90
2023-02-05T16:59:45.500Z,2.60
2023-02-05T17:02:29.323Z,2.63
2023-02-05T17:04:58.059Z,2.35
2023-02-05T17:07:25.452Z,2.53
2023-02-05T17:09:53.161Z,2.25
2023-02-05T17:12:22.738Z,2.15
2023-02-05T17:14:55.569Z,2.15
2023-02-05T17:17:23.636Z,2.05
2023-02-05T17:20:27.833Z,2.20
2023-02-05T17:23:01.287Z,2.00
2023-02-05T17:25:30.315Z,2.17
2023-02-05T17:27:57.391Z,1.95
2023-02-05T17:30:24.430Z,2.53
2023-02-05T17:32:52.671Z,2.00
2023-02-05T17:35:22.593Z,3.95
2023-02-05T17:37:49.550Z,2.60
2023-02-05T17:40:16.775Z,3.65
2023-02-05T17:42:46.266Z,3.35
2023-02-05T17:45:32.777Z,3.13
2023-02-05T17:47:59.848Z,2.65
2023-02-05T17:50:27.416Z,2.70
2023-02-05T17:52:55.288Z,3.00
2023-02-05T17:55:23.408Z,3.53
2023-02-05T17:57:50.620Z,3.17
2023-02-05T18:00:23.683Z,3.05
2023-02-05T18:02:51.248Z,3.38
2023-02-05T18:05:19.226Z,2.78
2023-02-05T18:07:57.751Z,2.78
2023-02-05T18:10:28.266Z,2.58
2023-02-05T18:12:56.235Z,2.80
2023-02-05T18:15:24.806Z,3.13
2023-02-05T18:17:52.705Z,3.20
2023-02-05T18:20:21.125Z,3.33
2023-02-05T18:22:49.533Z,4.90
2023-02-05T18:25:16.729Z,3.70
2023-02-05T18:27:44.054Z,3.55
2023-02-05T18:30:11.857Z,2.95
2023-02-05T18:32:38.925Z,3.55
2023-02-05T18:35:06.179Z,3.90
2023-02-05T18:37:35.830Z,3.03
2023-02-05T18:40:03.035Z,3.10
2023-02-05T18:42:30.326Z,3.08
2023-02-05T18:44:57.363Z,2.70
2023-02-05T18:47:24.713Z,3.40
2023-02-05T18:49:52.121Z,2.85
2023-02-05T18:52:19.127Z,3.50
2023-02-05T18:54:47.027Z,5.07
2023-02-05T18:57:14.018Z,3.33
2023-02-05T18:59:41.056Z,3.42
2023-02-05T19:02:10.431Z,3.60
2023-02-05T19:04:37.558Z,4.07
2023-02-05T19:07:05.490Z,3.75
2023-02-05T19:09:32.681Z,3.70
2023-02-05T19:11:59.900Z,3.95
2023-02-05T19:14:27.700Z,4.28
2023-02-05T19:16:54.889Z,3.88
2023-02-05T19:19:25.126Z,4.38
2023-02-05T19:21:55.050Z,3.88
2023-02-05T19:24:22.635Z,3.40
2023-02-05T19:26:50.999Z,3.53
2023-02-05T19:29:20.288Z,3.15
2023-02-05T19:31:48.434Z,3.17
2023-02-05T19:34:16.302Z,3.55
2023-02-05T19:36:43.545Z,3.67
2023-02-05T19:39:12.899Z,3.45
2023-02-05T19:41:40.144Z,2.83
2023-02-05T19:44:09.045Z,3.17
2023-02-05T19:46:42.580Z,3.10
2023-02-05T19:49:21.428Z,3.42
2023-02-05T19:51:50.996Z,3.50
2023-02-05T19:54:21.354Z,3.03
2023-02-05T19:56:52.996Z,2.83
2023-02-05T19:59:21.170Z,3.28
2023-02-05T20:01:48.536Z,3.42
2023-02-05T20:04:22.396Z,3.30
2023-02-05T20:06:50.051Z,3.38
2023-02-05T20:09:17.518Z,3.30
2023-02-05T20:11:50.125Z,3.05
2023-02-05T20:14:17.815Z,2.60
2023-02-05T20:16:45.781Z,2.95
2023-02-05T20:19:14.906Z,3.03
2023-02-05T20:21:42.972Z,3.17
2023-02-05T20:24:10.803Z,2.90
2023-02-05T20:26:38.328Z,3.03
2023-02-05T20:29:25.226Z,3.10
2023-02-05T20:31:53.535Z,3.03
2023-02-05T20:34:26.479Z,2.63
2023-02-05T20:36:55.939Z,2.78
2023-02-05T20:39:25.025Z,3.30
2023-02-05T20:41:52.621Z,3.58
2023-02-05T20:44:19.866Z,3.05
2023-02-05T20:46:46.989Z,3.13
2023-02-05T20:49:14.451Z,2.78
2023-02-05T20:51:42.193Z,2.70
2023-02-05T20:54:09.928Z,3.08
2023-02-05T20:56:37.399Z,2.92
2023-02-05T20:59:06.865Z,3.15
2023-02-05T21:01:35.871Z,2.97
2023-02-05T21:04:05.452Z,2.50
2023-02-05T21:06:34.938Z,2.90
2023-02-05T21:09:02.369Z,3.00
2023-02-05T21:11:30.074Z,3.33
2023-02-05T21:13:58.720Z,3.05
2023-02-05T21:16:27.640Z,2.90
2023-02-05T21:18:55.275Z,3.00
2023-02-05T21:21:27.823Z,3.10
2023-02-05T21:24:00.798Z,3.22
2023-02-05T21:26:31.597Z,3.35
2023-02-05T21:29:07.144Z,3.17
2023-02-05T21:34:08.654Z,3.65
2023-02-05T21:36:35.796Z,2.85
2023-02-05T21:39:03.088Z,3.00
2023-02-05T21:41:30.458Z,3.15
2023-02-05T21:43:59.794Z,3.38
2023-02-05T21:46:29.435Z,2.67
2023-02-05T21:48:58.415Z,3.10
2023-02-05T21:51:30.909Z,2.72
2023-02-05T21:53:59.986Z,3.00
2023-02-05T21:56:32.208Z,3.20
2023-02-05T21:58:59.698Z,3.10
2023-02-05T22:01:30.677Z,3.60
2023-02-05T22:04:03.572Z,3.95
2023-02-05T22:06:33.124Z,3.42
2023-02-05T22:09:02.062Z,4.10
2023-02-05T22:11:29.504Z,3.65
2023-02-05T22:13:57.092Z,3.25
2023-02-05T22:16:32.439Z,4.20
2023-02-05T22:19:00.896Z,5.50
2023-02-05T22:21:30.713Z,3.25
2023-02-05T22:24:00.262Z,3.28
2023-02-05T22:26:30.637Z,3.60
2023-02-05T22:28:59.408Z,3.15
2023-02-05T22:31:27.611Z,4.00
2023-02-05T22:33:55.637Z,3.22
2023-02-05T22:36:25.278Z,3.00
2023-02-05T22:38:53.956Z,3.38
2023-02-05T22:41:23.643Z,3.00
2023-02-05T22:43:51.022Z,3.10
2023-02-05T22:46:24.088Z,3.30
2023-02-05T22:48:52.553Z,3.40
2023-02-05T22:51:26.064Z,2.92
2023-02-05T22:53:54.971Z,3.75
2023-02-05T22:56:22.806Z,2.63
2023-02-05T22:58:50.804Z,2.85
2023-02-05T23:01:22.311Z,2.83
2023-02-05T23:03:51.047Z,3.05
2023-02-05T23:06:27.366Z,4.63
2023-02-05T23:08:56.407Z,2.80
2023-02-05T23:11:24.338Z,2.50
2023-02-05T23:13:52.385Z,3.17
2023-02-05T23:16:25.461Z,2.90
2023-02-05T23:18:54.353Z,3.63
2023-02-05T23:21:23.700Z,2.97
2023-02-05T23:23:51.176Z,2.47
2023-02-05T23:26:23.775Z,2.85
2023-02-05T23:28:52.257Z,2.58
2023-02-05T23:31:20.456Z,2.47
2023-02-05T23:33:47.574Z,2.33
2023-02-05T23:36:14.744Z,2.65
2023-02-05T23:38:41.774Z,2.20
2023-02-05T23:41:09.174Z,2.25
2023-02-05T23:43:37.326Z,2.05
2023-02-05T23:46:05.619Z,2.00
2023-02-05T23:48:33.152Z,2.15
2023-02-05T23:51:00.344Z,1.75
2023-02-05T23:53:27.583Z,2.33
2023-02-05T23:55:54.773Z,2.58
2023-02-05T23:58:26.121Z,2.00
